Terminal Aerodrome Forecast
Issued by NWS

Home | Current Version | Previous Version | Text Only | Print | Product List | Glossary On
Versions: 1 2 3 4 5 6 7 8 9 10 11 12 13 14 15 16 17 18
000
FTUS43 KIWX 242320
TAFSBN
TAF
KSBN 242320Z 2500/2524 12014G21KT 5SM BR VCSH OVC010
      TEMPO 2501/2504 3SM -RA OVC007
     FM250400 15015G22KT 4SM -RA OVC005 WS020/20045KT
     FM250900 23019G29KT P6SM BKN018
     FM251500 24018G28KT P6SM SCT030
     FM252300 23008KT P6SM SKC=

USA.gov is the U.S. government's official web portal to all federal, state and local government web resources and services.